SHT21M EGJB-EGLL
Flight info
| Callsign | SHT21M |
|---|---|
| Flight time | 0h 38m |
| Altitude | 23000 |
| Route | ORIST1F ORIST L982 ROXOG ROXOG1H |
| Aircraft | A319/M-SDE3FGHIRWY/LB1 |
Departure
| Time | 2026-04-21 12:52 |
|---|---|
| Airport | Guernsey Airport (EGJB) |
Arrival
| Time | 2026-04-21 13:30 |
|---|---|
| Airport | London Heathrow Airport (EGLL) |
| Time | Latitude | Longitude | Altitude | Speed | Heading |
|---|---|---|---|---|---|
| 2026-04-21 12:30 | 49.43257 | -2.59622 | 345 ft | 0 kts | 177° |
| 2026-04-21 12:46 | 49.43261 | -2.59622 | 344 ft | 3 kts | 177° |
| 2026-04-21 12:46 | 49.43287 | -2.59623 | 344 ft | 4 kts | 181° |
| 2026-04-21 12:47 | 49.43315 | -2.59621 | 349 ft | 4 kts | 185° |
| 2026-04-21 12:47 | 49.43341 | -2.59615 | 355 ft | 4 kts | 198° |
| 2026-04-21 12:47 | 49.43362 | -2.59597 | 355 ft | 4 kts | 256° |
| 2026-04-21 12:47 | 49.43364 | -2.59590 | 355 ft | 0 kts | 267° |
| 2026-04-21 12:49 | 49.43364 | -2.59591 | 355 ft | 0 kts | 267° |
| 2026-04-21 12:49 | 49.43363 | -2.59625 | 349 ft | 7 kts | 268° |
| 2026-04-21 12:49 | 49.43354 | -2.59736 | 344 ft | 15 kts | 254° |
| 2026-04-21 12:49 | 49.43342 | -2.59960 | 344 ft | 25 kts | 268° |
| 2026-04-21 12:50 | 49.43333 | -2.60257 | 338 ft | 31 kts | 267° |
| 2026-04-21 12:50 | 49.43329 | -2.60619 | 330 ft | 31 kts | 278° |
| 2026-04-21 12:50 | 49.43364 | -2.60944 | 322 ft | 29 kts | 274° |
| 2026-04-21 12:50 | 49.43359 | -2.61173 | 317 ft | 16 kts | 268° |
| 2026-04-21 12:51 | 49.43413 | -2.61340 | 313 ft | 14 kts | 322° |
| 2026-04-21 12:51 | 49.43465 | -2.61310 | 314 ft | 9 kts | 88° |
| 2026-04-21 12:51 | 49.43470 | -2.61133 | 317 ft | 31 kts | 88° |
| 2026-04-21 12:51 | 49.43496 | -2.60355 | 339 ft | 112 kts | 86° |
| 2026-04-21 12:52 | 49.43547 | -2.59104 | 927 ft | 115 kts | 83° |
| 2026-04-21 12:52 | 49.43564 | -2.57874 | 1728 ft | 118 kts | 86° |
| 2026-04-21 12:52 | 49.43589 | -2.56609 | 2132 ft | 127 kts | 86° |
| 2026-04-21 12:52 | 49.43633 | -2.55139 | 2472 ft | 149 kts | 86° |
| 2026-04-21 12:53 | 49.43681 | -2.53484 | 2990 ft | 161 kts | 87° |
| 2026-04-21 12:53 | 49.43732 | -2.51663 | 3409 ft | 180 kts | 88° |
| 2026-04-21 12:53 | 49.44064 | -2.49765 | 3973 ft | 193 kts | 60° |
| 2026-04-21 12:53 | 49.45144 | -2.48416 | 4599 ft | 211 kts | 35° |
| 2026-04-21 12:54 | 49.46410 | -2.47144 | 5221 ft | 225 kts | 40° |
| 2026-04-21 12:54 | 49.47704 | -2.45620 | 5844 ft | 244 kts | 42° |
| 2026-04-21 12:54 | 49.49070 | -2.43960 | 6483 ft | 255 kts | 41° |
| 2026-04-21 12:54 | 49.50486 | -2.42255 | 7080 ft | 261 kts | 41° |
| 2026-04-21 12:55 | 49.51941 | -2.40536 | 7675 ft | 266 kts | 39° |
| 2026-04-21 12:55 | 49.53426 | -2.38800 | 8290 ft | 270 kts | 39° |
| 2026-04-21 12:55 | 49.54935 | -2.37050 | 8930 ft | 274 kts | 38° |
| 2026-04-21 12:55 | 49.56468 | -2.35275 | 9565 ft | 277 kts | 38° |
| 2026-04-21 12:56 | 49.58019 | -2.33480 | 10200 ft | 281 kts | 37° |
| 2026-04-21 12:56 | 49.59615 | -2.31637 | 10791 ft | 293 kts | 37° |
| 2026-04-21 12:56 | 49.61274 | -2.29720 | 11391 ft | 304 kts | 36° |
| 2026-04-21 12:56 | 49.62975 | -2.27753 | 11997 ft | 315 kts | 36° |
| 2026-04-21 12:57 | 49.64753 | -2.25696 | 12619 ft | 325 kts | 36° |
| 2026-04-21 12:57 | 49.66586 | -2.23578 | 13253 ft | 333 kts | 35° |
| 2026-04-21 12:57 | 49.68464 | -2.21409 | 13904 ft | 341 kts | 34° |
| 2026-04-21 12:57 | 49.70374 | -2.19198 | 14486 ft | 345 kts | 34° |
| 2026-04-21 12:58 | 49.72306 | -2.16958 | 15075 ft | 349 kts | 33° |
| 2026-04-21 12:58 | 49.74252 | -2.14691 | 15674 ft | 352 kts | 33° |
| 2026-04-21 12:58 | 49.76213 | -2.12400 | 16278 ft | 355 kts | 33° |
| 2026-04-21 12:58 | 49.78189 | -2.10089 | 16897 ft | 358 kts | 33° |
| 2026-04-21 12:59 | 49.80189 | -2.07753 | 17532 ft | 361 kts | 33° |
| 2026-04-21 12:59 | 49.82204 | -2.05400 | 18178 ft | 365 kts | 32° |
| 2026-04-21 12:59 | 49.84243 | -2.03018 | 18795 ft | 368 kts | 32° |
| 2026-04-21 12:59 | 49.86295 | -2.00616 | 19366 ft | 372 kts | 32° |
| 2026-04-21 13:00 | 49.88364 | -1.98192 | 19957 ft | 375 kts | 32° |
| 2026-04-21 13:00 | 49.90451 | -1.95744 | 20553 ft | 378 kts | 32° |
| 2026-04-21 13:00 | 49.92562 | -1.93270 | 21046 ft | 384 kts | 32° |
| 2026-04-21 13:00 | 49.94795 | -1.90971 | 21466 ft | 386 kts | 22° |
| 2026-04-21 13:01 | 49.97196 | -1.89051 | 21982 ft | 390 kts | 21° |
| 2026-04-21 13:01 | 49.99624 | -1.87101 | 22516 ft | 394 kts | 21° |
| 2026-04-21 13:01 | 50.02039 | -1.85155 | 23020 ft | 399 kts | 21° |
| 2026-04-21 13:01 | 50.04509 | -1.83161 | 23221 ft | 399 kts | 21° |
| 2026-04-21 13:02 | 50.06934 | -1.81188 | 23249 ft | 389 kts | 21° |
| 2026-04-21 13:02 | 50.09319 | -1.79241 | 23255 ft | 386 kts | 21° |
| 2026-04-21 13:02 | 50.14069 | -1.75375 | 23257 ft | 385 kts | 21° |
| 2026-04-21 13:03 | 50.16443 | -1.73449 | 23255 ft | 384 kts | 21° |
| 2026-04-21 13:03 | 50.18813 | -1.71530 | 23253 ft | 384 kts | 21° |
| 2026-04-21 13:03 | 50.21182 | -1.69615 | 23259 ft | 384 kts | 21° |
| 2026-04-21 13:03 | 50.23554 | -1.67693 | 23259 ft | 383 kts | 21° |
| 2026-04-21 13:04 | 50.25918 | -1.65769 | 23262 ft | 383 kts | 21° |
| 2026-04-21 13:04 | 50.28278 | -1.63842 | 23260 ft | 383 kts | 21° |
| 2026-04-21 13:04 | 50.30637 | -1.61908 | 23265 ft | 383 kts | 21° |
| 2026-04-21 13:04 | 50.32994 | -1.59976 | 23265 ft | 383 kts | 21° |
| 2026-04-21 13:05 | 50.35354 | -1.58040 | 23275 ft | 382 kts | 21° |
| 2026-04-21 13:05 | 50.37709 | -1.56111 | 23285 ft | 382 kts | 21° |
| 2026-04-21 13:05 | 50.40063 | -1.54184 | 23283 ft | 382 kts | 21° |
| 2026-04-21 13:05 | 50.42389 | -1.52280 | 23289 ft | 382 kts | 20° |
| 2026-04-21 13:06 | 50.44740 | -1.50356 | 23291 ft | 381 kts | 20° |
| 2026-04-21 13:06 | 50.47091 | -1.48425 | 23289 ft | 381 kts | 20° |
| 2026-04-21 13:06 | 50.49437 | -1.46489 | 23289 ft | 381 kts | 21° |
| 2026-04-21 13:06 | 50.51779 | -1.44551 | 23288 ft | 381 kts | 20° |
| 2026-04-21 13:07 | 50.54124 | -1.42611 | 23292 ft | 380 kts | 20° |
| 2026-04-21 13:07 | 50.56473 | -1.40643 | 23283 ft | 388 kts | 21° |
| 2026-04-21 13:07 | 50.58867 | -1.38606 | 23275 ft | 393 kts | 21° |
| 2026-04-21 13:07 | 50.61275 | -1.36530 | 23277 ft | 395 kts | 22° |
| 2026-04-21 13:08 | 50.62899 | -1.35121 | 23276 ft | 395 kts | 22° |
| 2026-04-21 13:08 | 50.66090 | -1.32348 | 23279 ft | 395 kts | 21° |
| 2026-04-21 13:08 | 50.68498 | -1.30257 | 23291 ft | 395 kts | 21° |
| 2026-04-21 13:08 | 50.70906 | -1.28170 | 23291 ft | 395 kts | 21° |
| 2026-04-21 13:09 | 50.73313 | -1.26091 | 23286 ft | 394 kts | 21° |
| 2026-04-21 13:09 | 50.75716 | -1.24015 | 23293 ft | 394 kts | 21° |
| 2026-04-21 13:09 | 50.78099 | -1.21840 | 23290 ft | 396 kts | 24° |
| 2026-04-21 13:09 | 50.80433 | -1.19518 | 23307 ft | 398 kts | 25° |
| 2026-04-21 13:10 | 50.82745 | -1.17099 | 23300 ft | 398 kts | 26° |
| 2026-04-21 13:10 | 50.85042 | -1.14651 | 23304 ft | 398 kts | 26° |
| 2026-04-21 13:10 | 50.87338 | -1.12200 | 23305 ft | 398 kts | 26° |
| 2026-04-21 13:10 | 50.89639 | -1.09763 | 23313 ft | 397 kts | 26° |
| 2026-04-21 13:11 | 50.91938 | -1.07351 | 23305 ft | 397 kts | 26° |
| 2026-04-21 13:11 | 50.94236 | -1.04962 | 22752 ft | 393 kts | 26° |
| 2026-04-21 13:11 | 50.96514 | -1.02599 | 22029 ft | 390 kts | 27° |
| 2026-04-21 13:11 | 50.98771 | -1.00257 | 21381 ft | 385 kts | 27° |
| 2026-04-21 13:12 | 51.00909 | -0.97700 | 20731 ft | 386 kts | 39° |
| 2026-04-21 13:12 | 51.02726 | -0.94572 | 20094 ft | 383 kts | 44° |
| 2026-04-21 13:12 | 51.04488 | -0.91442 | 19473 ft | 378 kts | 45° |
| 2026-04-21 13:12 | 51.06223 | -0.88347 | 18874 ft | 372 kts | 45° |
| 2026-04-21 13:13 | 51.07926 | -0.85301 | 18248 ft | 365 kts | 45° |
| 2026-04-21 13:13 | 51.09597 | -0.82310 | 17556 ft | 359 kts | 46° |
| 2026-04-21 13:13 | 51.11246 | -0.79361 | 16826 ft | 354 kts | 47° |
| 2026-04-21 13:13 | 51.12868 | -0.76461 | 16290 ft | 345 kts | 48° |
| 2026-04-21 13:14 | 51.14398 | -0.73725 | 16158 ft | 326 kts | 48° |
| 2026-04-21 13:14 | 51.15868 | -0.71097 | 15971 ft | 311 kts | 48° |
| 2026-04-21 13:14 | 51.17292 | -0.68550 | 15570 ft | 305 kts | 49° |
| 2026-04-21 13:14 | 51.18691 | -0.66039 | 15090 ft | 302 kts | 50° |
| 2026-04-21 13:15 | 51.20077 | -0.63546 | 14613 ft | 298 kts | 50° |
| 2026-04-21 13:15 | 51.21445 | -0.61081 | 14144 ft | 296 kts | 50° |
| 2026-04-21 13:15 | 51.22802 | -0.58637 | 13626 ft | 293 kts | 50° |
| 2026-04-21 13:15 | 51.24146 | -0.56217 | 13117 ft | 290 kts | 51° |
| 2026-04-21 13:16 | 51.25476 | -0.53821 | 12666 ft | 286 kts | 51° |
| 2026-04-21 13:16 | 51.26771 | -0.51486 | 12325 ft | 278 kts | 51° |
| 2026-04-21 13:16 | 51.28047 | -0.49175 | 11812 ft | 278 kts | 51° |
| 2026-04-21 13:16 | 51.29324 | -0.46859 | 11321 ft | 277 kts | 51° |
| 2026-04-21 13:17 | 51.30592 | -0.44547 | 10821 ft | 276 kts | 53° |
| 2026-04-21 13:17 | 51.31466 | -0.41883 | 10333 ft | 270 kts | 76° |
| 2026-04-21 13:17 | 51.31572 | -0.39072 | 9831 ft | 269 kts | 98° |
| 2026-04-21 13:17 | 51.30919 | -0.36292 | 9295 ft | 270 kts | 121° |
| 2026-04-21 13:18 | 51.29588 | -0.34168 | 8732 ft | 275 kts | 144° |
| 2026-04-21 13:18 | 51.27784 | -0.33091 | 8216 ft | 283 kts | 167° |
| 2026-04-21 13:18 | 51.26469 | -0.33065 | 7881 ft | 289 kts | 184° |
| 2026-04-21 13:18 | 51.24575 | -0.34186 | 7403 ft | 296 kts | 211° |
| 2026-04-21 13:19 | 51.23180 | -0.36527 | 7282 ft | 289 kts | 238° |
| 2026-04-21 13:19 | 51.22544 | -0.39463 | 7292 ft | 273 kts | 264° |
| 2026-04-21 13:19 | 51.22679 | -0.42356 | 7293 ft | 253 kts | 289° |
| 2026-04-21 13:19 | 51.23435 | -0.44801 | 7302 ft | 243 kts | 310° |
| 2026-04-21 13:20 | 51.24408 | -0.47001 | 7303 ft | 243 kts | 309° |
| 2026-04-21 13:20 | 51.25398 | -0.49249 | 7065 ft | 255 kts | 309° |
| 2026-04-21 13:20 | 51.26440 | -0.51609 | 6554 ft | 263 kts | 309° |
| 2026-04-21 13:20 | 51.27495 | -0.54017 | 6145 ft | 262 kts | 308° |
| 2026-04-21 13:21 | 51.28518 | -0.56370 | 6114 ft | 256 kts | 308° |
| 2026-04-21 13:21 | 51.29532 | -0.58701 | 6117 ft | 255 kts | 308° |
| 2026-04-21 13:21 | 51.30544 | -0.61029 | 6119 ft | 255 kts | 308° |
| 2026-04-21 13:21 | 51.31555 | -0.63358 | 6121 ft | 255 kts | 308° |
| 2026-04-21 13:22 | 51.32567 | -0.65683 | 6120 ft | 254 kts | 309° |
| 2026-04-21 13:22 | 51.33577 | -0.68006 | 6121 ft | 255 kts | 309° |
| 2026-04-21 13:22 | 51.34590 | -0.70335 | 6087 ft | 256 kts | 309° |
| 2026-04-21 13:22 | 51.35620 | -0.72699 | 5551 ft | 261 kts | 309° |
| 2026-04-21 13:23 | 51.36657 | -0.75081 | 5143 ft | 259 kts | 310° |
| 2026-04-21 13:23 | 51.37870 | -0.77091 | 4829 ft | 244 kts | 329° |
| 2026-04-21 13:23 | 51.39286 | -0.78298 | 4570 ft | 226 kts | 347° |
| 2026-04-21 13:23 | 51.40774 | -0.78779 | 4308 ft | 212 kts | 3° |
| 2026-04-21 13:24 | 51.42217 | -0.78851 | 4049 ft | 204 kts | 5° |
| 2026-04-21 13:24 | 51.43622 | -0.78926 | 3797 ft | 199 kts | 5° |
| 2026-04-21 13:24 | 51.44982 | -0.78999 | 3581 ft | 192 kts | 5° |
| 2026-04-21 13:24 | 51.46298 | -0.78955 | 3291 ft | 185 kts | 19° |
| 2026-04-21 13:25 | 51.47294 | -0.77863 | 3132 ft | 174 kts | 58° |
| 2026-04-21 13:25 | 51.47611 | -0.76032 | 3150 ft | 173 kts | 88° |
| 2026-04-21 13:25 | 51.47616 | -0.74138 | 3133 ft | 164 kts | 88° |
| 2026-04-21 13:25 | 51.47626 | -0.72360 | 3026 ft | 156 kts | 88° |
| 2026-04-21 13:26 | 51.47636 | -0.70639 | 2861 ft | 153 kts | 88° |
| 2026-04-21 13:26 | 51.47646 | -0.68935 | 2663 ft | 152 kts | 88° |
| 2026-04-21 13:26 | 51.47656 | -0.67249 | 2461 ft | 148 kts | 88° |
| 2026-04-21 13:26 | 51.47665 | -0.65667 | 2260 ft | 137 kts | 88° |
| 2026-04-21 13:27 | 51.47673 | -0.64183 | 2093 ft | 130 kts | 89° |
| 2026-04-21 13:27 | 51.47679 | -0.62741 | 1920 ft | 128 kts | 89° |
| 2026-04-21 13:27 | 51.47678 | -0.61305 | 1768 ft | 130 kts | 89° |
| 2026-04-21 13:27 | 51.47691 | -0.59841 | 1564 ft | 132 kts | 87° |
| 2026-04-21 13:28 | 51.47709 | -0.58360 | 1401 ft | 132 kts | 88° |
| 2026-04-21 13:28 | 51.47714 | -0.56879 | 1308 ft | 133 kts | 88° |
| 2026-04-21 13:28 | 51.47726 | -0.55407 | 1038 ft | 130 kts | 88° |
| 2026-04-21 13:28 | 51.47724 | -0.53988 | 850 ft | 124 kts | 88° |
| 2026-04-21 13:29 | 51.47728 | -0.52621 | 642 ft | 128 kts | 88° |
| 2026-04-21 13:29 | 51.47735 | -0.51161 | 476 ft | 131 kts | 86° |
| 2026-04-21 13:29 | 51.47744 | -0.49716 | 284 ft | 127 kts | 86° |
| 2026-04-21 13:29 | 51.47749 | -0.48324 | 124 ft | 121 kts | 86° |
| 2026-04-21 13:30 | 51.47756 | -0.47126 | 89 ft | 90 kts | 89° |
| 2026-04-21 13:30 | 51.47757 | -0.46400 | 91 ft | 40 kts | 90° |
| 2026-04-21 13:30 | 51.47734 | -0.46202 | 90 ft | 9 kts | 124° |
| 2026-04-21 13:30 | 51.47670 | -0.46111 | 86 ft | 14 kts | 141° |
| 2026-04-21 13:31 | 51.47592 | -0.46090 | 88 ft | 12 kts | 253° |
| 2026-04-21 13:31 | 51.47594 | -0.46242 | 87 ft | 15 kts | 268° |
| 2026-04-21 13:31 | 51.47593 | -0.46421 | 87 ft | 17 kts | 268° |
| 2026-04-21 13:31 | 51.47591 | -0.46621 | 87 ft | 19 kts | 270° |
| 2026-04-21 13:32 | 51.47590 | -0.46841 | 87 ft | 21 kts | 266° |
| 2026-04-21 13:32 | 51.47583 | -0.47078 | 88 ft | 22 kts | 270° |
| 2026-04-21 13:32 | 51.47581 | -0.47333 | 88 ft | 24 kts | 269° |
| 2026-04-21 13:32 | 51.47580 | -0.47605 | 88 ft | 25 kts | 270° |
| 2026-04-21 13:33 | 51.47580 | -0.47895 | 87 ft | 27 kts | 269° |
| 2026-04-21 13:33 | 51.47578 | -0.48210 | 87 ft | 29 kts | 269° |
| 2026-04-21 13:33 | 51.47572 | -0.48451 | 87 ft | 16 kts | 246° |
| 2026-04-21 13:33 | 51.47526 | -0.48481 | 88 ft | 8 kts | 185° |
| 2026-04-21 13:34 | 51.47456 | -0.48480 | 87 ft | 12 kts | 179° |
| 2026-04-21 13:34 | 51.47342 | -0.48478 | 87 ft | 20 kts | 180° |
| 2026-04-21 13:34 | 51.47178 | -0.48479 | 87 ft | 26 kts | 180° |
| 2026-04-21 13:34 | 51.47012 | -0.48477 | 87 ft | 24 kts | 179° |
| 2026-04-21 13:35 | 51.46879 | -0.48510 | 87 ft | 17 kts | 239° |
| 2026-04-21 13:35 | 51.46876 | -0.48694 | 87 ft | 12 kts | 271° |
| 2026-04-21 13:35 | 51.46894 | -0.48717 | 87 ft | 5 kts | 15° |
| 2026-04-21 13:35 | 51.46929 | -0.48717 | 87 ft | 0 kts | 359° |
| 2026-04-21 13:36 | 51.46923 | -0.48718 | 87 ft | 0 kts | 360° |